sensor_id;sensor_type;location;lat;lon;timestamp;P1;durP1;ratioP1;P2;durP2;ratioP2
45420;SDS011;55462;47.042;8.292;2023-04-24T00:00:18;1.52;;;1.42;;
45420;SDS011;55462;47.042;8.292;2023-04-24T00:02:43;1.00;;;1.00;;
45420;SDS011;55462;47.042;8.292;2023-04-24T00:05:13;1.08;;;1.08;;
45420;SDS011;55462;47.042;8.292;2023-04-24T00:07:39;1.27;;;1.15;;
45420;SDS011;55462;47.042;8.292;2023-04-24T00:10:06;1.00;;;1.00;;
45420;SDS011;55462;47.042;8.292;2023-04-24T00:12:32;1.20;;;1.20;;
45420;SDS011;55462;47.042;8.292;2023-04-24T00:14:57;1.65;;;1.17;;
45420;SDS011;55462;47.042;8.292;2023-04-24T00:17:23;0.95;;;0.95;;
45420;SDS011;55462;47.042;8.292;2023-04-24T00:19:48;1.33;;;1.23;;
45420;SDS011;55462;47.042;8.292;2023-04-24T00:22:16;1.08;;;1.02;;
45420;SDS011;55462;47.042;8.292;2023-04-24T00:24:42;1.10;;;1.10;;
45420;SDS011;55462;47.042;8.292;2023-04-24T00:27:07;0.98;;;0.98;;
45420;SDS011;55462;47.042;8.292;2023-04-24T00:29:32;0.82;;;0.82;;
45420;SDS011;55462;47.042;8.292;2023-04-24T00:31:58;1.17;;;1.08;;
45420;SDS011;55462;47.042;8.292;2023-04-24T00:34:23;0.90;;;0.90;;
45420;SDS011;55462;47.042;8.292;2023-04-24T00:36:48;1.10;;;1.10;;
45420;SDS011;55462;47.042;8.292;2023-04-24T00:39:17;1.23;;;1.23;;
45420;SDS011;55462;47.042;8.292;2023-04-24T00:41:43;1.23;;;1.17;;
45420;SDS011;55462;47.042;8.292;2023-04-24T00:44:08;1.20;;;1.20;;
45420;SDS011;55462;47.042;8.292;2023-04-24T00:46:33;1.15;;;1.15;;
45420;SDS011;55462;47.042;8.292;2023-04-24T00:48:59;1.27;;;1.27;;
45420;SDS011;55462;47.042;8.292;2023-04-24T00:51:24;1.20;;;1.20;;
45420;SDS011;55462;47.042;8.292;2023-04-24T00:53:50;2.30;;;1.40;;
45420;SDS011;55462;47.042;8.292;2023-04-24T00:56:16;0.90;;;0.90;;
45420;SDS011;55462;47.042;8.292;2023-04-24T00:58:42;0.90;;;0.90;;
45420;SDS011;55462;47.042;8.292;2023-04-24T01:01:08;1.83;;;0.90;;
45420;SDS011;55462;47.042;8.292;2023-04-24T01:03:34;0.93;;;0.93;;
45420;SDS011;55462;47.042;8.292;2023-04-24T01:06:01;0.88;;;0.88;;
45420;SDS011;55462;47.042;8.292;2023-04-24T01:08:27;0.60;;;0.60;;
45420;SDS011;55462;47.042;8.292;2023-04-24T01:10:53;0.60;;;0.60;;
45420;SDS011;55462;47.042;8.292;2023-04-24T01:13:19;2.05;;;0.60;;
45420;SDS011;55462;47.042;8.292;2023-04-24T01:15:45;0.55;;;0.55;;
45420;SDS011;55462;47.042;8.292;2023-04-24T01:18:11;0.60;;;0.60;;
45420;SDS011;55462;47.042;8.292;2023-04-24T01:20:37;0.50;;;0.50;;
45420;SDS011;55462;47.042;8.292;2023-04-24T01:23:05;0.50;;;0.50;;
45420;SDS011;55462;47.042;8.292;2023-04-24T01:25:31;0.90;;;0.90;;
45420;SDS011;55462;47.042;8.292;2023-04-24T01:27:56;0.70;;;0.70;;
45420;SDS011;55462;47.042;8.292;2023-04-24T01:30:22;0.63;;;0.63;;
45420;SDS011;55462;47.042;8.292;2023-04-24T01:32:47;0.90;;;0.70;;
45420;SDS011;55462;47.042;8.292;2023-04-24T01:35:13;0.80;;;0.80;;
45420;SDS011;55462;47.042;8.292;2023-04-24T01:37:38;0.70;;;0.70;;
45420;SDS011;55462;47.042;8.292;2023-04-24T01:40:05;0.70;;;0.70;;
45420;SDS011;55462;47.042;8.292;2023-04-24T01:42:31;0.60;;;0.60;;
45420;SDS011;55462;47.042;8.292;2023-04-24T01:44:57;0.50;;;0.50;;
45420;SDS011;55462;47.042;8.292;2023-04-24T01:47:22;0.50;;;0.50;;
45420;SDS011;55462;47.042;8.292;2023-04-24T01:49:48;0.60;;;0.60;;
45420;SDS011;55462;47.042;8.292;2023-04-24T01:52:15;0.50;;;0.50;;
45420;SDS011;55462;47.042;8.292;2023-04-24T01:54:41;0.50;;;0.50;;
45420;SDS011;55462;47.042;8.292;2023-04-24T01:57:06;0.50;;;0.50;;
45420;SDS011;55462;47.042;8.292;2023-04-24T01:59:32;0.50;;;0.50;;
45420;SDS011;55462;47.042;8.292;2023-04-24T02:01:58;0.50;;;0.50;;
45420;SDS011;55462;47.042;8.292;2023-04-24T02:04:23;0.50;;;0.50;;
45420;SDS011;55462;47.042;8.292;2023-04-24T02:06:48;0.30;;;0.30;;
45420;SDS011;55462;47.042;8.292;2023-04-24T02:09:14;0.50;;;0.50;;
45420;SDS011;55462;47.042;8.292;2023-04-24T02:11:39;0.50;;;0.50;;
45420;SDS011;55462;47.042;8.292;2023-04-24T02:14:05;0.40;;;0.40;;
45420;SDS011;55462;47.042;8.292;2023-04-24T02:16:30;1.42;;;0.50;;
45420;SDS011;55462;47.042;8.292;2023-04-24T02:18:57;0.60;;;0.60;;
45420;SDS011;55462;47.042;8.292;2023-04-24T02:21:23;0.50;;;0.50;;
45420;SDS011;55462;47.042;8.292;2023-04-24T02:23:48;0.52;;;0.52;;
45420;SDS011;55462;47.042;8.292;2023-04-24T02:26:13;0.63;;;0.63;;
45420;SDS011;55462;47.042;8.292;2023-04-24T02:28:38;0.68;;;0.68;;
45420;SDS011;55462;47.042;8.292;2023-04-24T02:31:04;0.50;;;0.50;;
45420;SDS011;55462;47.042;8.292;2023-04-24T02:33:31;0.40;;;0.40;;
45420;SDS011;55462;47.042;8.292;2023-04-24T02:35:56;0.40;;;0.40;;
45420;SDS011;55462;47.042;8.292;2023-04-24T02:38:21;0.40;;;0.40;;
45420;SDS011;55462;47.042;8.292;2023-04-24T02:40:47;0.50;;;0.50;;
45420;SDS011;55462;47.042;8.292;2023-04-24T02:43:12;0.50;;;0.50;;
45420;SDS011;55462;47.042;8.292;2023-04-24T02:45:37;0.50;;;0.50;;
45420;SDS011;55462;47.042;8.292;2023-04-24T02:48:03;0.40;;;0.40;;
45420;SDS011;55462;47.042;8.292;2023-04-24T02:50:28;0.38;;;0.38;;
45420;SDS011;55462;47.042;8.292;2023-04-24T02:52:54;0.30;;;0.30;;
45420;SDS011;55462;47.042;8.292;2023-04-24T02:55:19;0.73;;;0.40;;
45420;SDS011;55462;47.042;8.292;2023-04-24T02:57:45;0.32;;;0.32;;
45420;SDS011;55462;47.042;8.292;2023-04-24T03:00:10;0.40;;;0.40;;
45420;SDS011;55462;47.042;8.292;2023-04-24T03:02:36;0.40;;;0.40;;
45420;SDS011;55462;47.042;8.292;2023-04-24T03:05:01;0.40;;;0.40;;
45420;SDS011;55462;47.042;8.292;2023-04-24T03:07:27;0.38;;;0.38;;
45420;SDS011;55462;47.042;8.292;2023-04-24T03:09:52;0.57;;;0.50;;
45420;SDS011;55462;47.042;8.292;2023-04-24T03:12:17;0.50;;;0.50;;
45420;SDS011;55462;47.042;8.292;2023-04-24T03:14:43;0.80;;;0.80;;
45420;SDS011;55462;47.042;8.292;2023-04-24T03:17:08;1.33;;;0.65;;
45420;SDS011;55462;47.042;8.292;2023-04-24T03:19:34;0.73;;;0.60;;
45420;SDS011;55462;47.042;8.292;2023-04-24T03:22:01;0.77;;;0.77;;
45420;SDS011;55462;47.042;8.292;2023-04-24T03:24:27;0.82;;;0.82;;
45420;SDS011;55462;47.042;8.292;2023-04-24T03:26:52;0.70;;;0.70;;
45420;SDS011;55462;47.042;8.292;2023-04-24T03:29:18;0.60;;;0.60;;
45420;SDS011;55462;47.042;8.292;2023-04-24T03:31:43;1.08;;;0.60;;
45420;SDS011;55462;47.042;8.292;2023-04-24T03:34:08;1.92;;;0.90;;
45420;SDS011;55462;47.042;8.292;2023-04-24T03:36:34;0.60;;;0.60;;
45420;SDS011;55462;47.042;8.292;2023-04-24T03:39:00;0.73;;;0.70;;
45420;SDS011;55462;47.042;8.292;2023-04-24T03:41:25;0.60;;;0.60;;
45420;SDS011;55462;47.042;8.292;2023-04-24T03:43:50;1.00;;;0.65;;
45420;SDS011;55462;47.042;8.292;2023-04-24T03:46:16;1.52;;;0.60;;
45420;SDS011;55462;47.042;8.292;2023-04-24T03:48:41;0.60;;;0.60;;
45420;SDS011;55462;47.042;8.292;2023-04-24T03:51:06;0.63;;;0.63;;
45420;SDS011;55462;47.042;8.292;2023-04-24T03:53:32;0.60;;;0.60;;
45420;SDS011;55462;47.042;8.292;2023-04-24T03:55:57;0.80;;;0.80;;
45420;SDS011;55462;47.042;8.292;2023-04-24T03:58:22;0.65;;;0.65;;
45420;SDS011;55462;47.042;8.292;2023-04-24T04:00:48;0.93;;;0.47;;
45420;SDS011;55462;47.042;8.292;2023-04-24T04:03:14;0.50;;;0.50;;
45420;SDS011;55462;47.042;8.292;2023-04-24T04:05:39;0.90;;;0.90;;
45420;SDS011;55462;47.042;8.292;2023-04-24T04:08:05;0.60;;;0.60;;
45420;SDS011;55462;47.042;8.292;2023-04-24T04:10:30;0.90;;;0.80;;
45420;SDS011;55462;47.042;8.292;2023-04-24T04:12:56;1.20;;;0.80;;
45420;SDS011;55462;47.042;8.292;2023-04-24T04:15:21;0.77;;;0.63;;
45420;SDS011;55462;47.042;8.292;2023-04-24T04:17:46;1.10;;;0.63;;
45420;SDS011;55462;47.042;8.292;2023-04-24T04:20:12;0.95;;;0.70;;
45420;SDS011;55462;47.042;8.292;2023-04-24T04:22:39;1.38;;;0.55;;
45420;SDS011;55462;47.042;8.292;2023-04-24T04:25:04;2.97;;;0.63;;
45420;SDS011;55462;47.042;8.292;2023-04-24T04:27:30;0.80;;;0.57;;
45420;SDS011;55462;47.042;8.292;2023-04-24T04:29:57;0.73;;;0.70;;
45420;SDS011;55462;47.042;8.292;2023-04-24T04:32:24;1.45;;;0.60;;
45420;SDS011;55462;47.042;8.292;2023-04-24T04:34:49;0.50;;;0.50;;
45420;SDS011;55462;47.042;8.292;2023-04-24T04:37:18;0.60;;;0.60;;
45420;SDS011;55462;47.042;8.292;2023-04-24T04:39:43;1.23;;;0.68;;
45420;SDS011;55462;47.042;8.292;2023-04-24T04:42:08;0.77;;;0.60;;
45420;SDS011;55462;47.042;8.292;2023-04-24T04:44:34;0.60;;;0.60;;
45420;SDS011;55462;47.042;8.292;2023-04-24T04:47:00;0.65;;;0.65;;
45420;SDS011;55462;47.042;8.292;2023-04-24T04:49:28;0.65;;;0.65;;
45420;SDS011;55462;47.042;8.292;2023-04-24T04:51:54;0.52;;;0.52;;
45420;SDS011;55462;47.042;8.292;2023-04-24T04:54:19;0.80;;;0.77;;
45420;SDS011;55462;47.042;8.292;2023-04-24T04:56:45;1.27;;;0.50;;
45420;SDS011;55462;47.042;8.292;2023-04-24T04:59:10;0.60;;;0.60;;
45420;SDS011;55462;47.042;8.292;2023-04-24T05:01:35;0.95;;;0.60;;
45420;SDS011;55462;47.042;8.292;2023-04-24T05:04:01;0.82;;;0.60;;
45420;SDS011;55462;47.042;8.292;2023-04-24T05:06:26;0.95;;;0.50;;
45420;SDS011;55462;47.042;8.292;2023-04-24T05:08:52;1.25;;;0.70;;
45420;SDS011;55462;47.042;8.292;2023-04-24T05:11:22;0.50;;;0.50;;
45420;SDS011;55462;47.042;8.292;2023-04-24T05:13:47;0.80;;;0.50;;
45420;SDS011;55462;47.042;8.292;2023-04-24T05:16:12;0.88;;;0.80;;
45420;SDS011;55462;47.042;8.292;2023-04-24T05:18:38;0.60;;;0.60;;
45420;SDS011;55462;47.042;8.292;2023-04-24T05:21:03;1.10;;;0.80;;
45420;SDS011;55462;47.042;8.292;2023-04-24T05:23:28;0.73;;;0.70;;
45420;SDS011;55462;47.042;8.292;2023-04-24T05:25:54;0.85;;;0.77;;
45420;SDS011;55462;47.042;8.292;2023-04-24T05:28:19;1.23;;;0.60;;
45420;SDS011;55462;47.042;8.292;2023-04-24T05:30:45;1.38;;;0.98;;
45420;SDS011;55462;47.042;8.292;2023-04-24T05:33:11;2.20;;;0.77;;
45420;SDS011;55462;47.042;8.292;2023-04-24T05:35:36;0.95;;;0.85;;
45420;SDS011;55462;47.042;8.292;2023-04-24T05:38:02;1.17;;;0.60;;
45420;SDS011;55462;47.042;8.292;2023-04-24T05:40:27;1.23;;;0.70;;
45420;SDS011;55462;47.042;8.292;2023-04-24T05:42:52;1.58;;;0.82;;
45420;SDS011;55462;47.042;8.292;2023-04-24T05:45:18;0.80;;;0.80;;
45420;SDS011;55462;47.042;8.292;2023-04-24T05:47:43;0.65;;;0.60;;
45420;SDS011;55462;47.042;8.292;2023-04-24T05:50:09;1.05;;;0.73;;
45420;SDS011;55462;47.042;8.292;2023-04-24T05:52:35;1.02;;;0.77;;
45420;SDS011;55462;47.042;8.292;2023-04-24T05:55:00;1.35;;;0.80;;
45420;SDS011;55462;47.042;8.292;2023-04-24T05:57:25;1.30;;;0.75;;
45420;SDS011;55462;47.042;8.292;2023-04-24T05:59:51;0.50;;;0.50;;
45420;SDS011;55462;47.042;8.292;2023-04-24T06:02:16;0.75;;;0.75;;
45420;SDS011;55462;47.042;8.292;2023-04-24T06:04:42;2.00;;;0.93;;
45420;SDS011;55462;47.042;8.292;2023-04-24T06:07:10;1.08;;;1.08;;
45420;SDS011;55462;47.042;8.292;2023-04-24T06:09:35;1.77;;;1.00;;
45420;SDS011;55462;47.042;8.292;2023-04-24T06:12:01;1.08;;;0.98;;
45420;SDS011;55462;47.042;8.292;2023-04-24T06:14:27;0.90;;;0.90;;
45420;SDS011;55462;47.042;8.292;2023-04-24T06:16:52;0.77;;;0.77;;
45420;SDS011;55462;47.042;8.292;2023-04-24T06:19:18;0.60;;;0.60;;
45420;SDS011;55462;47.042;8.292;2023-04-24T06:21:43;0.90;;;0.90;;
45420;SDS011;55462;47.042;8.292;2023-04-24T06:24:08;1.15;;;1.00;;
45420;SDS011;55462;47.042;8.292;2023-04-24T06:26:34;0.85;;;0.85;;
45420;SDS011;55462;47.042;8.292;2023-04-24T06:28:59;1.23;;;0.93;;
45420;SDS011;55462;47.042;8.292;2023-04-24T06:31:25;1.08;;;1.00;;
45420;SDS011;55462;47.042;8.292;2023-04-24T06:33:50;1.02;;;1.00;;
45420;SDS011;55462;47.042;8.292;2023-04-24T06:36:16;1.08;;;0.98;;
45420;SDS011;55462;47.042;8.292;2023-04-24T06:38:41;1.85;;;1.00;;
45420;SDS011;55462;47.042;8.292;2023-04-24T06:41:07;1.85;;;1.00;;
45420;SDS011;55462;47.042;8.292;2023-04-24T06:43:32;2.78;;;1.10;;
45420;SDS011;55462;47.042;8.292;2023-04-24T06:45:58;1.30;;;1.10;;
45420;SDS011;55462;47.042;8.292;2023-04-24T06:48:24;1.10;;;1.00;;
45420;SDS011;55462;47.042;8.292;2023-04-24T06:50:50;1.75;;;1.30;;
45420;SDS011;55462;47.042;8.292;2023-04-24T06:53:15;1.35;;;1.05;;
45420;SDS011;55462;47.042;8.292;2023-04-24T06:55:41;1.48;;;1.00;;
45420;SDS011;55462;47.042;8.292;2023-04-24T06:58:08;1.15;;;0.93;;
45420;SDS011;55462;47.042;8.292;2023-04-24T07:00:33;0.95;;;0.95;;
45420;SDS011;55462;47.042;8.292;2023-04-24T07:02:58;1.73;;;1.20;;
45420;SDS011;55462;47.042;8.292;2023-04-24T07:05:24;0.90;;;0.90;;
45420;SDS011;55462;47.042;8.292;2023-04-24T07:07:49;1.48;;;1.08;;
45420;SDS011;55462;47.042;8.292;2023-04-24T07:10:16;2.00;;;1.10;;
45420;SDS011;55462;47.042;8.292;2023-04-24T07:12:41;1.20;;;1.10;;
45420;SDS011;55462;47.042;8.292;2023-04-24T07:15:07;1.55;;;1.00;;
45420;SDS011;55462;47.042;8.292;2023-04-24T07:17:33;1.10;;;1.00;;
45420;SDS011;55462;47.042;8.292;2023-04-24T07:19:58;1.95;;;1.27;;
45420;SDS011;55462;47.042;8.292;2023-04-24T07:22:24;1.20;;;1.10;;
45420;SDS011;55462;47.042;8.292;2023-04-24T07:24:49;0.98;;;0.98;;
45420;SDS011;55462;47.042;8.292;2023-04-24T07:27:15;1.98;;;1.15;;
45420;SDS011;55462;47.042;8.292;2023-04-24T07:29:40;1.20;;;1.10;;
45420;SDS011;55462;47.042;8.292;2023-04-24T07:32:05;4.97;;;1.27;;
45420;SDS011;55462;47.042;8.292;2023-04-24T07:34:31;1.20;;;1.00;;
45420;SDS011;55462;47.042;8.292;2023-04-24T07:36:56;1.50;;;1.10;;
45420;SDS011;55462;47.042;8.292;2023-04-24T07:39:22;1.63;;;1.05;;
45420;SDS011;55462;47.042;8.292;2023-04-24T07:41:47;2.80;;;1.30;;
45420;SDS011;55462;47.042;8.292;2023-04-24T07:44:12;1.25;;;1.10;;
45420;SDS011;55462;47.042;8.292;2023-04-24T07:46:38;1.15;;;1.05;;
45420;SDS011;55462;47.042;8.292;2023-04-24T07:49:03;1.90;;;1.35;;
45420;SDS011;55462;47.042;8.292;2023-04-24T07:51:29;1.80;;;1.17;;
45420;SDS011;55462;47.042;8.292;2023-04-24T07:53:55;1.08;;;1.08;;
45420;SDS011;55462;47.042;8.292;2023-04-24T07:56:20;2.08;;;1.52;;
45420;SDS011;55462;47.042;8.292;2023-04-24T07:58:46;1.90;;;1.30;;
45420;SDS011;55462;47.042;8.292;2023-04-24T08:01:11;1.45;;;1.17;;
45420;SDS011;55462;47.042;8.292;2023-04-24T08:03:36;0.93;;;0.93;;
45420;SDS011;55462;47.042;8.292;2023-04-24T08:06:02;2.80;;;1.50;;
45420;SDS011;55462;47.042;8.292;2023-04-24T08:08:27;2.53;;;1.40;;
45420;SDS011;55462;47.042;8.292;2023-04-24T08:10:53;1.73;;;1.23;;
45420;SDS011;55462;47.042;8.292;2023-04-24T08:13:18;1.42;;;1.33;;
45420;SDS011;55462;47.042;8.292;2023-04-24T08:15:43;1.77;;;1.13;;
45420;SDS011;55462;47.042;8.292;2023-04-24T08:18:09;1.20;;;1.13;;
45420;SDS011;55462;47.042;8.292;2023-04-24T08:20:36;0.98;;;0.98;;
45420;SDS011;55462;47.042;8.292;2023-04-24T08:23:02;1.67;;;1.27;;
45420;SDS011;55462;47.042;8.292;2023-04-24T08:25:27;2.40;;;0.93;;
45420;SDS011;55462;47.042;8.292;2023-04-24T08:27:52;2.08;;;1.48;;
45420;SDS011;55462;47.042;8.292;2023-04-24T08:30:18;3.03;;;1.00;;
45420;SDS011;55462;47.042;8.292;2023-04-24T08:32:43;1.63;;;1.42;;
45420;SDS011;55462;47.042;8.292;2023-04-24T08:35:08;1.13;;;1.10;;
45420;SDS011;55462;47.042;8.292;2023-04-24T08:37:34;1.85;;;1.25;;
45420;SDS011;55462;47.042;8.292;2023-04-24T08:40:01;1.75;;;1.05;;
45420;SDS011;55462;47.042;8.292;2023-04-24T08:42:27;1.05;;;1.05;;
45420;SDS011;55462;47.042;8.292;2023-04-24T08:44:53;1.73;;;0.90;;
45420;SDS011;55462;47.042;8.292;2023-04-24T08:47:19;1.05;;;1.00;;
45420;SDS011;55462;47.042;8.292;2023-04-24T08:49:45;1.45;;;1.00;;
45420;SDS011;55462;47.042;8.292;2023-04-24T08:52:12;1.25;;;1.10;;
45420;SDS011;55462;47.042;8.292;2023-04-24T08:54:38;1.17;;;1.08;;
45420;SDS011;55462;47.042;8.292;2023-04-24T08:57:04;2.25;;;1.00;;
45420;SDS011;55462;47.042;8.292;2023-04-24T08:59:32;1.20;;;1.10;;
45420;SDS011;55462;47.042;8.292;2023-04-24T09:01:59;1.00;;;1.00;;
45420;SDS011;55462;47.042;8.292;2023-04-24T09:04:25;2.58;;;1.20;;
45420;SDS011;55462;47.042;8.292;2023-04-24T09:06:51;1.65;;;1.55;;
45420;SDS011;55462;47.042;8.292;2023-04-24T09:09:18;1.45;;;1.30;;
45420;SDS011;55462;47.042;8.292;2023-04-24T09:11:44;1.17;;;1.08;;
45420;SDS011;55462;47.042;8.292;2023-04-24T09:14:09;1.42;;;1.30;;
45420;SDS011;55462;47.042;8.292;2023-04-24T09:16:36;1.30;;;1.20;;
45420;SDS011;55462;47.042;8.292;2023-04-24T09:19:01;1.70;;;1.20;;
45420;SDS011;55462;47.042;8.292;2023-04-24T09:21:31;1.38;;;1.15;;
45420;SDS011;55462;47.042;8.292;2023-04-24T09:24:02;3.00;;;1.27;;
45420;SDS011;55462;47.042;8.292;2023-04-24T09:26:29;1.60;;;1.50;;
45420;SDS011;55462;47.042;8.292;2023-04-24T09:28:56;1.80;;;1.60;;
45420;SDS011;55462;47.042;8.292;2023-04-24T09:31:22;3.22;;;1.58;;
45420;SDS011;55462;47.042;8.292;2023-04-24T09:34:01;1.38;;;1.27;;
45420;SDS011;55462;47.042;8.292;2023-04-24T09:36:37;2.70;;;1.58;;
45420;SDS011;55462;47.042;8.292;2023-04-24T09:39:07;1.45;;;1.30;;
45420;SDS011;55462;47.042;8.292;2023-04-24T09:41:44;3.50;;;1.60;;
45420;SDS011;55462;47.042;8.292;2023-04-24T09:44:11;1.65;;;1.55;;
45420;SDS011;55462;47.042;8.292;2023-04-24T09:46:38;1.65;;;1.30;;
45420;SDS011;55462;47.042;8.292;2023-04-24T09:49:12;3.05;;;1.60;;
45420;SDS011;55462;47.042;8.292;2023-04-24T09:51:38;1.63;;;1.40;;
45420;SDS011;55462;47.042;8.292;2023-04-24T09:54:05;1.33;;;1.27;;
45420;SDS011;55462;47.042;8.292;2023-04-24T09:56:39;2.40;;;1.42;;
45420;SDS011;55462;47.042;8.292;2023-04-24T09:59:07;2.72;;;1.38;;
45420;SDS011;55462;47.042;8.292;2023-04-24T10:01:33;1.48;;;1.25;;
45420;SDS011;55462;47.042;8.292;2023-04-24T10:03:58;1.83;;;1.30;;
45420;SDS011;55462;47.042;8.292;2023-04-24T10:06:29;1.98;;;1.60;;
45420;SDS011;55462;47.042;8.292;2023-04-24T10:08:57;2.42;;;1.35;;
45420;SDS011;55462;47.042;8.292;2023-04-24T10:11:23;2.53;;;1.73;;
45420;SDS011;55462;47.042;8.292;2023-04-24T10:13:51;1.42;;;1.33;;
45420;SDS011;55462;47.042;8.292;2023-04-24T10:16:17;1.10;;;1.10;;
45420;SDS011;55462;47.042;8.292;2023-04-24T10:18:42;4.45;;;1.58;;
45420;SDS011;55462;47.042;8.292;2023-04-24T10:21:08;1.70;;;1.23;;
45420;SDS011;55462;47.042;8.292;2023-04-24T10:23:33;1.48;;;1.33;;
45420;SDS011;55462;47.042;8.292;2023-04-24T10:26:00;1.70;;;1.52;;
45420;SDS011;55462;47.042;8.292;2023-04-24T10:28:25;3.35;;;1.48;;
45420;SDS011;55462;47.042;8.292;2023-04-24T10:30:51;2.03;;;1.50;;
45420;SDS011;55462;47.042;8.292;2023-04-24T10:33:19;2.58;;;1.35;;
45420;SDS011;55462;47.042;8.292;2023-04-24T10:35:46;1.75;;;1.50;;
45420;SDS011;55462;47.042;8.292;2023-04-24T10:38:15;2.25;;;1.58;;
45420;SDS011;55462;47.042;8.292;2023-04-24T10:40:43;2.58;;;1.52;;
45420;SDS011;55462;47.042;8.292;2023-04-24T10:43:09;1.77;;;1.40;;
45420;SDS011;55462;47.042;8.292;2023-04-24T10:45:36;1.98;;;1.55;;
45420;SDS011;55462;47.042;8.292;2023-04-24T10:48:03;2.08;;;1.40;;
45420;SDS011;55462;47.042;8.292;2023-04-24T10:50:47;1.92;;;1.55;;
45420;SDS011;55462;47.042;8.292;2023-04-24T10:53:17;1.55;;;1.45;;
45420;SDS011;55462;47.042;8.292;2023-04-24T10:55:45;1.63;;;1.52;;
45420;SDS011;55462;47.042;8.292;2023-04-24T10:58:12;2.03;;;1.33;;
45420;SDS011;55462;47.042;8.292;2023-04-24T11:00:38;2.20;;;1.70;;
45420;SDS011;55462;47.042;8.292;2023-04-24T11:03:05;1.55;;;1.45;;
45420;SDS011;55462;47.042;8.292;2023-04-24T11:05:50;3.55;;;1.75;;
45420;SDS011;55462;47.042;8.292;2023-04-24T11:11:10;1.50;;;1.40;;
45420;SDS011;55462;47.042;8.292;2023-04-24T11:16:21;2.88;;;1.45;;
45420;SDS011;55462;47.042;8.292;2023-04-24T11:18:50;8.85;;;2.00;;
45420;SDS011;55462;47.042;8.292;2023-04-24T11:21:18;2.47;;;1.38;;
45420;SDS011;55462;47.042;8.292;2023-04-24T11:23:44;1.83;;;1.50;;
45420;SDS011;55462;47.042;8.292;2023-04-24T11:26:10;4.50;;;1.80;;
45420;SDS011;55462;47.042;8.292;2023-04-24T11:28:46;2.17;;;1.30;;
45420;SDS011;55462;47.042;8.292;2023-04-24T11:34:11;3.47;;;1.67;;
45420;SDS011;55462;47.042;8.292;2023-04-24T11:36:38;2.63;;;1.58;;
45420;SDS011;55462;47.042;8.292;2023-04-24T11:39:04;1.95;;;1.40;;
45420;SDS011;55462;47.042;8.292;2023-04-24T11:41:30;1.80;;;1.50;;
45420;SDS011;55462;47.042;8.292;2023-04-24T11:43:55;2.35;;;1.48;;
45420;SDS011;55462;47.042;8.292;2023-04-24T11:46:21;2.22;;;1.45;;
45420;SDS011;55462;47.042;8.292;2023-04-24T11:48:47;2.47;;;1.45;;
45420;SDS011;55462;47.042;8.292;2023-04-24T11:51:12;2.97;;;1.75;;
45420;SDS011;55462;47.042;8.292;2023-04-24T11:53:38;1.95;;;1.30;;
45420;SDS011;55462;47.042;8.292;2023-04-24T11:56:04;2.22;;;1.35;;
45420;SDS011;55462;47.042;8.292;2023-04-24T11:58:34;2.47;;;1.60;;
45420;SDS011;55462;47.042;8.292;2023-04-24T12:01:09;2.17;;;1.70;;
45420;SDS011;55462;47.042;8.292;2023-04-24T12:03:34;1.80;;;1.30;;
45420;SDS011;55462;47.042;8.292;2023-04-24T12:06:10;4.18;;;1.52;;
45420;SDS011;55462;47.042;8.292;2023-04-24T12:08:36;1.42;;;1.33;;
45420;SDS011;55462;47.042;8.292;2023-04-24T12:11:03;3.13;;;1.30;;
45420;SDS011;55462;47.042;8.292;2023-04-24T12:13:29;2.25;;;1.33;;
45420;SDS011;55462;47.042;8.292;2023-04-24T12:15:56;2.20;;;1.50;;
45420;SDS011;55462;47.042;8.292;2023-04-24T12:18:22;1.83;;;1.40;;
45420;SDS011;55462;47.042;8.292;2023-04-24T12:20:48;1.30;;;1.20;;
45420;SDS011;55462;47.042;8.292;2023-04-24T12:23:14;2.15;;;1.58;;
45420;SDS011;55462;47.042;8.292;2023-04-24T12:25:39;2.85;;;1.50;;
45420;SDS011;55462;47.042;8.292;2023-04-24T12:30:31;2.25;;;1.58;;
45420;SDS011;55462;47.042;8.292;2023-04-24T12:32:58;1.50;;;1.40;;
45420;SDS011;55462;47.042;8.292;2023-04-24T12:35:24;1.35;;;1.33;;
45420;SDS011;55462;47.042;8.292;2023-04-24T12:37:51;2.00;;;1.40;;
45420;SDS011;55462;47.042;8.292;2023-04-24T12:40:17;1.38;;;1.17;;
45420;SDS011;55462;47.042;8.292;2023-04-24T12:42:43;2.15;;;1.48;;
45420;SDS011;55462;47.042;8.292;2023-04-24T12:45:10;1.63;;;1.35;;
45420;SDS011;55462;47.042;8.292;2023-04-24T12:47:37;2.17;;;1.48;;
45420;SDS011;55462;47.042;8.292;2023-04-24T12:50:03;3.13;;;1.50;;
45420;SDS011;55462;47.042;8.292;2023-04-24T12:52:29;1.98;;;1.60;;
45420;SDS011;55462;47.042;8.292;2023-04-24T12:54:55;1.52;;;1.42;;
45420;SDS011;55462;47.042;8.292;2023-04-24T12:57:25;2.08;;;1.40;;
45420;SDS011;55462;47.042;8.292;2023-04-24T12:59:54;3.00;;;1.58;;
45420;SDS011;55462;47.042;8.292;2023-04-24T13:02:24;1.15;;;1.15;;
45420;SDS011;55462;47.042;8.292;2023-04-24T13:04:50;2.30;;;1.17;;
45420;SDS011;55462;47.042;8.292;2023-04-24T13:07:15;1.73;;;1.20;;
45420;SDS011;55462;47.042;8.292;2023-04-24T13:09:41;1.67;;;1.40;;
45420;SDS011;55462;47.042;8.292;2023-04-24T13:12:08;3.03;;;1.52;;
45420;SDS011;55462;47.042;8.292;2023-04-24T13:14:33;1.40;;;1.30;;
45420;SDS011;55462;47.042;8.292;2023-04-24T13:16:59;1.35;;;1.13;;
45420;SDS011;55462;47.042;8.292;2023-04-24T13:19:25;1.90;;;1.40;;
45420;SDS011;55462;47.042;8.292;2023-04-24T13:21:51;1.58;;;1.45;;
45420;SDS011;55462;47.042;8.292;2023-04-24T13:24:17;1.50;;;1.35;;
45420;SDS011;55462;47.042;8.292;2023-04-24T13:26:42;1.48;;;1.20;;
45420;SDS011;55462;47.042;8.292;2023-04-24T13:29:08;1.67;;;1.38;;
45420;SDS011;55462;47.042;8.292;2023-04-24T13:31:33;3.03;;;1.40;;
45420;SDS011;55462;47.042;8.292;2023-04-24T13:33:59;2.22;;;1.65;;
45420;SDS011;55462;47.042;8.292;2023-04-24T13:36:24;1.52;;;1.42;;
45420;SDS011;55462;47.042;8.292;2023-04-24T13:38:50;1.55;;;1.40;;
45420;SDS011;55462;47.042;8.292;2023-04-24T13:41:15;4.70;;;1.60;;
45420;SDS011;55462;47.042;8.292;2023-04-24T13:43:41;2.22;;;1.60;;
45420;SDS011;55462;47.042;8.292;2023-04-24T13:46:07;1.38;;;1.27;;
45420;SDS011;55462;47.042;8.292;2023-04-24T13:48:33;1.20;;;0.93;;
45420;SDS011;55462;47.042;8.292;2023-04-24T13:50:58;2.35;;;1.42;;
45420;SDS011;55462;47.042;8.292;2023-04-24T13:53:23;1.23;;;1.20;;
45420;SDS011;55462;47.042;8.292;2023-04-24T13:55:49;1.38;;;1.27;;
45420;SDS011;55462;47.042;8.292;2023-04-24T13:58:14;1.60;;;1.20;;
45420;SDS011;55462;47.042;8.292;2023-04-24T14:00:40;1.60;;;1.50;;
45420;SDS011;55462;47.042;8.292;2023-04-24T14:03:05;1.85;;;1.38;;
45420;SDS011;55462;47.042;8.292;2023-04-24T14:05:30;1.52;;;1.35;;
45420;SDS011;55462;47.042;8.292;2023-04-24T14:07:56;3.63;;;1.45;;
45420;SDS011;55462;47.042;8.292;2023-04-24T14:10:21;4.93;;;1.33;;
45420;SDS011;55462;47.042;8.292;2023-04-24T14:12:47;2.33;;;1.50;;
45420;SDS011;55462;47.042;8.292;2023-04-24T14:15:13;2.92;;;1.50;;
45420;SDS011;55462;47.042;8.292;2023-04-24T14:17:38;1.45;;;1.40;;
45420;SDS011;55462;47.042;8.292;2023-04-24T14:20:04;1.40;;;1.30;;
45420;SDS011;55462;47.042;8.292;2023-04-24T14:22:29;2.63;;;1.20;;
45420;SDS011;55462;47.042;8.292;2023-04-24T14:24:55;2.40;;;1.48;;
45420;SDS011;55462;47.042;8.292;2023-04-24T14:27:20;1.40;;;1.30;;
45420;SDS011;55462;47.042;8.292;2023-04-24T14:29:45;1.50;;;1.42;;
45420;SDS011;55462;47.042;8.292;2023-04-24T14:32:11;2.30;;;1.23;;
45420;SDS011;55462;47.042;8.292;2023-04-24T14:34:36;1.80;;;1.63;;
45420;SDS011;55462;47.042;8.292;2023-04-24T14:37:01;1.60;;;1.30;;
45420;SDS011;55462;47.042;8.292;2023-04-24T14:39:27;2.38;;;1.70;;
45420;SDS011;55462;47.042;8.292;2023-04-24T14:41:53;1.50;;;1.40;;
45420;SDS011;55462;47.042;8.292;2023-04-24T14:44:18;1.85;;;1.08;;
45420;SDS011;55462;47.042;8.292;2023-04-24T14:46:43;1.52;;;1.23;;
45420;SDS011;55462;47.042;8.292;2023-04-24T14:49:10;1.30;;;1.20;;
45420;SDS011;55462;47.042;8.292;2023-04-24T14:51:36;1.52;;;1.42;;